sensor_id;sensor_type;location;lat;lon;timestamp;temperature;humidity
15543;DHT22;7873;52.230;12.856;2023-05-29T00:01:44;23.00;43.00
15543;DHT22;7873;52.230;12.856;2023-05-29T00:04:11;23.00;43.00
15543;DHT22;7873;52.230;12.856;2023-05-29T00:06:38;23.00;43.00
15543;DHT22;7873;52.230;12.856;2023-05-29T00:09:06;23.00;43.10
15543;DHT22;7873;52.230;12.856;2023-05-29T00:11:32;23.00;43.00
15543;DHT22;7873;52.230;12.856;2023-05-29T00:14:01;23.00;43.10
15543;DHT22;7873;52.230;12.856;2023-05-29T00:16:28;23.00;43.10
15543;DHT22;7873;52.230;12.856;2023-05-29T00:18:55;23.00;43.10
15543;DHT22;7873;52.230;12.856;2023-05-29T00:21:23;23.00;43.10
15543;DHT22;7873;52.230;12.856;2023-05-29T00:23:49;23.00;43.20
15543;DHT22;7873;52.230;12.856;2023-05-29T00:26:16;23.00;43.10
15543;DHT22;7873;52.230;12.856;2023-05-29T00:28:43;22.90;43.10
15543;DHT22;7873;52.230;12.856;2023-05-29T00:31:11;22.90;43.20
15543;DHT22;7873;52.230;12.856;2023-05-29T00:33:38;23.00;43.20
15543;DHT22;7873;52.230;12.856;2023-05-29T00:36:04;23.00;43.10
15543;DHT22;7873;52.230;12.856;2023-05-29T00:38:31;23.00;43.10
15543;DHT22;7873;52.230;12.856;2023-05-29T00:40:58;22.90;43.20
15543;DHT22;7873;52.230;12.856;2023-05-29T00:43:25;23.00;43.10
15543;DHT22;7873;52.230;12.856;2023-05-29T00:45:52;22.90;43.20
15543;DHT22;7873;52.230;12.856;2023-05-29T00:48:20;22.90;43.20
15543;DHT22;7873;52.230;12.856;2023-05-29T00:50:47;22.90;43.20
15543;DHT22;7873;52.230;12.856;2023-05-29T00:53:14;22.90;43.20
15543;DHT22;7873;52.230;12.856;2023-05-29T00:55:41;22.90;43.20
15543;DHT22;7873;52.230;12.856;2023-05-29T00:58:08;22.90;43.20
15543;DHT22;7873;52.230;12.856;2023-05-29T01:00:35;22.90;43.30
15543;DHT22;7873;52.230;12.856;2023-05-29T01:03:04;22.90;43.30
15543;DHT22;7873;52.230;12.856;2023-05-29T01:05:33;22.80;43.20
15543;DHT22;7873;52.230;12.856;2023-05-29T01:08:01;22.90;44.00
15543;DHT22;7873;52.230;12.856;2023-05-29T01:10:28;22.90;43.30
15543;DHT22;7873;52.230;12.856;2023-05-29T01:12:57;22.90;43.30
15543;DHT22;7873;52.230;12.856;2023-05-29T01:15:33;22.80;43.20
15543;DHT22;7873;52.230;12.856;2023-05-29T01:18:19;22.80;43.20
15543;DHT22;7873;52.230;12.856;2023-05-29T01:20:55;22.80;43.20
15543;DHT22;7873;52.230;12.856;2023-05-29T01:23:38;22.80;43.30
15543;DHT22;7873;52.230;12.856;2023-05-29T01:26:37;22.80;43.20
15543;DHT22;7873;52.230;12.856;2023-05-29T01:29:12;22.80;43.20
15543;DHT22;7873;52.230;12.856;2023-05-29T01:31:42;22.80;43.20
15543;DHT22;7873;52.230;12.856;2023-05-29T01:34:09;22.80;43.20
15543;DHT22;7873;52.230;12.856;2023-05-29T01:36:36;22.80;43.30
15543;DHT22;7873;52.230;12.856;2023-05-29T01:39:03;22.80;43.30
15543;DHT22;7873;52.230;12.856;2023-05-29T01:41:30;22.80;43.30
15543;DHT22;7873;52.230;12.856;2023-05-29T01:43:59;22.80;43.30
15543;DHT22;7873;52.230;12.856;2023-05-29T01:46:28;22.80;43.30
15543;DHT22;7873;52.230;12.856;2023-05-29T01:48:55;22.80;43.30
15543;DHT22;7873;52.230;12.856;2023-05-29T01:51:22;22.80;43.30
15543;DHT22;7873;52.230;12.856;2023-05-29T01:53:49;22.80;43.30
15543;DHT22;7873;52.230;12.856;2023-05-29T01:56:15;22.80;43.30
15543;DHT22;7873;52.230;12.856;2023-05-29T01:58:42;22.80;43.30
15543;DHT22;7873;52.230;12.856;2023-05-29T02:01:11;22.70;43.20
15543;DHT22;7873;52.230;12.856;2023-05-29T02:03:38;22.80;43.30
15543;DHT22;7873;52.230;12.856;2023-05-29T02:06:04;22.80;43.30
15543;DHT22;7873;52.230;12.856;2023-05-29T02:08:31;22.80;43.30
15543;DHT22;7873;52.230;12.856;2023-05-29T02:10:58;22.80;43.30
15543;DHT22;7873;52.230;12.856;2023-05-29T02:13:25;22.70;43.30
15543;DHT22;7873;52.230;12.856;2023-05-29T02:15:51;22.70;43.30
15543;DHT22;7873;52.230;12.856;2023-05-29T02:18:19;22.70;43.30
15543;DHT22;7873;52.230;12.856;2023-05-29T02:20:46;22.70;43.30
15543;DHT22;7873;52.230;12.856;2023-05-29T02:23:13;22.70;43.30
15543;DHT22;7873;52.230;12.856;2023-05-29T02:25:40;22.70;43.40
15543;DHT22;7873;52.230;12.856;2023-05-29T02:28:07;22.70;43.50
15543;DHT22;7873;52.230;12.856;2023-05-29T02:30:34;22.70;43.50
15543;DHT22;7873;52.230;12.856;2023-05-29T02:33:01;22.60;43.50
15543;DHT22;7873;52.230;12.856;2023-05-29T02:35:29;22.60;43.50
15543;DHT22;7873;52.230;12.856;2023-05-29T02:37:56;22.60;43.50
15543;DHT22;7873;52.230;12.856;2023-05-29T02:40:22;22.60;43.50
15543;DHT22;7873;52.230;12.856;2023-05-29T02:42:49;22.60;43.50
15543;DHT22;7873;52.230;12.856;2023-05-29T02:45:16;22.60;43.50
15543;DHT22;7873;52.230;12.856;2023-05-29T02:47:43;22.60;44.20
15543;DHT22;7873;52.230;12.856;2023-05-29T02:50:10;22.60;43.50
15543;DHT22;7873;52.230;12.856;2023-05-29T02:52:41;22.60;43.50
15543;DHT22;7873;52.230;12.856;2023-05-29T02:55:08;22.60;43.60
15543;DHT22;7873;52.230;12.856;2023-05-29T02:57:34;22.60;43.70
15543;DHT22;7873;52.230;12.856;2023-05-29T03:00:01;22.60;43.50
15543;DHT22;7873;52.230;12.856;2023-05-29T03:02:31;22.60;43.50
15543;DHT22;7873;52.230;12.856;2023-05-29T03:04:58;22.60;43.60
15543;DHT22;7873;52.230;12.856;2023-05-29T03:07:25;22.60;43.50
15543;DHT22;7873;52.230;12.856;2023-05-29T03:09:54;22.60;43.50
15543;DHT22;7873;52.230;12.856;2023-05-29T03:12:20;22.60;43.50
15543;DHT22;7873;52.230;12.856;2023-05-29T03:14:47;22.60;43.60
15543;DHT22;7873;52.230;12.856;2023-05-29T03:17:14;22.50;43.50
15543;DHT22;7873;52.230;12.856;2023-05-29T03:19:41;22.50;43.50
15543;DHT22;7873;52.230;12.856;2023-05-29T03:22:07;22.50;43.50
15543;DHT22;7873;52.230;12.856;2023-05-29T03:24:34;22.50;43.70
15543;DHT22;7873;52.230;12.856;2023-05-29T03:27:02;22.50;43.70
15543;DHT22;7873;52.230;12.856;2023-05-29T03:29:31;22.50;43.50
15543;DHT22;7873;52.230;12.856;2023-05-29T03:31:57;22.50;43.70
15543;DHT22;7873;52.230;12.856;2023-05-29T03:34:24;22.50;43.60
15543;DHT22;7873;52.230;12.856;2023-05-29T03:36:52;22.50;43.50
15543;DHT22;7873;52.230;12.856;2023-05-29T03:39:18;22.50;43.50
15543;DHT22;7873;52.230;12.856;2023-05-29T03:41:45;22.50;43.50
15543;DHT22;7873;52.230;12.856;2023-05-29T03:44:13;22.50;44.20
15543;DHT22;7873;52.230;12.856;2023-05-29T03:46:40;22.50;43.60
15543;DHT22;7873;52.230;12.856;2023-05-29T03:49:06;22.50;43.50
15543;DHT22;7873;52.230;12.856;2023-05-29T03:51:33;22.50;43.40
15543;DHT22;7873;52.230;12.856;2023-05-29T03:54:00;22.50;43.50
15543;DHT22;7873;52.230;12.856;2023-05-29T03:56:27;22.50;43.50
15543;DHT22;7873;52.230;12.856;2023-05-29T03:58:54;22.40;43.40
15543;DHT22;7873;52.230;12.856;2023-05-29T04:01:22;22.40;43.50
15543;DHT22;7873;52.230;12.856;2023-05-29T04:03:49;22.40;43.60
15543;DHT22;7873;52.230;12.856;2023-05-29T04:06:16;22.40;43.40
15543;DHT22;7873;52.230;12.856;2023-05-29T04:08:43;22.40;43.40
15543;DHT22;7873;52.230;12.856;2023-05-29T04:11:09;22.40;43.60
15543;DHT22;7873;52.230;12.856;2023-05-29T04:13:38;22.40;43.50
15543;DHT22;7873;52.230;12.856;2023-05-29T04:16:05;22.40;43.40
15543;DHT22;7873;52.230;12.856;2023-05-29T04:18:34;22.50;43.40
15543;DHT22;7873;52.230;12.856;2023-05-29T04:21:00;22.40;43.40
15543;DHT22;7873;52.230;12.856;2023-05-29T04:23:27;22.40;43.40
15543;DHT22;7873;52.230;12.856;2023-05-29T04:25:54;22.40;43.40
15543;DHT22;7873;52.230;12.856;2023-05-29T04:28:20;22.40;43.40
15543;DHT22;7873;52.230;12.856;2023-05-29T04:30:48;22.40;43.30
15543;DHT22;7873;52.230;12.856;2023-05-29T04:33:16;22.40;43.30
15543;DHT22;7873;52.230;12.856;2023-05-29T04:35:45;22.40;43.20
15543;DHT22;7873;52.230;12.856;2023-05-29T04:38:13;22.50;43.30
15543;DHT22;7873;52.230;12.856;2023-05-29T04:40:41;22.40;43.30
15543;DHT22;7873;52.230;12.856;2023-05-29T04:43:08;22.40;43.40
15543;DHT22;7873;52.230;12.856;2023-05-29T04:45:35;22.40;43.40
15543;DHT22;7873;52.230;12.856;2023-05-29T04:48:03;22.40;43.30
15543;DHT22;7873;52.230;12.856;2023-05-29T04:50:30;22.40;43.40
15543;DHT22;7873;52.230;12.856;2023-05-29T04:52:58;22.40;43.30
15543;DHT22;7873;52.230;12.856;2023-05-29T04:55:25;22.50;43.40
15543;DHT22;7873;52.230;12.856;2023-05-29T04:57:52;22.40;43.40
15543;DHT22;7873;52.230;12.856;2023-05-29T05:00:19;22.40;43.40
15543;DHT22;7873;52.230;12.856;2023-05-29T05:02:47;22.40;43.40
15543;DHT22;7873;52.230;12.856;2023-05-29T05:05:14;22.60;43.40
15543;DHT22;7873;52.230;12.856;2023-05-29T05:07:40;22.60;43.20
15543;DHT22;7873;52.230;12.856;2023-05-29T05:10:09;22.70;43.10
15543;DHT22;7873;52.230;12.856;2023-05-29T05:12:37;22.80;43.00
15543;DHT22;7873;52.230;12.856;2023-05-29T05:15:05;23.00;42.80
15543;DHT22;7873;52.230;12.856;2023-05-29T05:17:33;23.00;43.20
15543;DHT22;7873;52.230;12.856;2023-05-29T05:20:01;22.90;43.80
15543;DHT22;7873;52.230;12.856;2023-05-29T05:22:31;23.00;44.70
15543;DHT22;7873;52.230;12.856;2023-05-29T05:24:58;23.00;45.40
15543;DHT22;7873;52.230;12.856;2023-05-29T05:27:27;22.80;45.40
15543;DHT22;7873;52.230;12.856;2023-05-29T05:29:54;22.90;45.30
15543;DHT22;7873;52.230;12.856;2023-05-29T05:32:22;23.00;45.20
15543;DHT22;7873;52.230;12.856;2023-05-29T05:34:49;23.10;44.90
15543;DHT22;7873;52.230;12.856;2023-05-29T05:37:16;23.10;44.70
15543;DHT22;7873;52.230;12.856;2023-05-29T05:39:42;23.20;44.30
15543;DHT22;7873;52.230;12.856;2023-05-29T05:42:09;23.40;44.10
15543;DHT22;7873;52.230;12.856;2023-05-29T05:44:37;23.40;43.90
15543;DHT22;7873;52.230;12.856;2023-05-29T05:47:04;23.50;43.50
15543;DHT22;7873;52.230;12.856;2023-05-29T05:49:31;23.50;43.50
15543;DHT22;7873;52.230;12.856;2023-05-29T05:51:57;23.50;43.30
15543;DHT22;7873;52.230;12.856;2023-05-29T05:54:24;23.50;43.40
15543;DHT22;7873;52.230;12.856;2023-05-29T05:56:51;23.50;43.40
15543;DHT22;7873;52.230;12.856;2023-05-29T05:59:18;23.60;43.20
15543;DHT22;7873;52.230;12.856;2023-05-29T06:01:46;23.60;43.10
15543;DHT22;7873;52.230;12.856;2023-05-29T06:04:12;23.60;43.10
15543;DHT22;7873;52.230;12.856;2023-05-29T06:06:39;23.60;43.70
15543;DHT22;7873;52.230;12.856;2023-05-29T06:09:06;23.60;43.00
15543;DHT22;7873;52.230;12.856;2023-05-29T06:11:34;23.60;43.00
15543;DHT22;7873;52.230;12.856;2023-05-29T06:14:01;23.60;43.00
15543;DHT22;7873;52.230;12.856;2023-05-29T06:16:27;23.60;42.90
15543;DHT22;7873;52.230;12.856;2023-05-29T06:18:55;23.60;42.90
15543;DHT22;7873;52.230;12.856;2023-05-29T06:21:22;23.50;43.10
15543;DHT22;7873;52.230;12.856;2023-05-29T06:23:49;23.40;43.80
15543;DHT22;7873;52.230;12.856;2023-05-29T06:26:15;23.30;44.00
15543;DHT22;7873;52.230;12.856;2023-05-29T06:28:42;23.30;43.70
15543;DHT22;7873;52.230;12.856;2023-05-29T06:31:09;23.40;43.70
15543;DHT22;7873;52.230;12.856;2023-05-29T06:33:36;23.40;43.60
15543;DHT22;7873;52.230;12.856;2023-05-29T06:36:05;23.40;43.30
15543;DHT22;7873;52.230;12.856;2023-05-29T06:38:32;23.30;43.50
15543;DHT22;7873;52.230;12.856;2023-05-29T06:40:58;23.40;43.60
15543;DHT22;7873;52.230;12.856;2023-05-29T06:43:26;23.40;43.80
15543;DHT22;7873;52.230;12.856;2023-05-29T06:45:54;23.50;43.60
15543;DHT22;7873;52.230;12.856;2023-05-29T06:48:21;23.50;43.40
15543;DHT22;7873;52.230;12.856;2023-05-29T06:50:47;23.50;43.50
15543;DHT22;7873;52.230;12.856;2023-05-29T06:53:16;23.40;43.90
15543;DHT22;7873;52.230;12.856;2023-05-29T06:55:42;23.20;44.40
15543;DHT22;7873;52.230;12.856;2023-05-29T06:58:09;23.10;44.50
15543;DHT22;7873;52.230;12.856;2023-05-29T07:00:36;23.00;43.80
15543;DHT22;7873;52.230;12.856;2023-05-29T07:03:02;22.90;43.30
15543;DHT22;7873;52.230;12.856;2023-05-29T07:05:29;22.70;44.00
15543;DHT22;7873;52.230;12.856;2023-05-29T07:07:55;22.60;42.60
15543;DHT22;7873;52.230;12.856;2023-05-29T07:10:23;22.50;42.10
15543;DHT22;7873;52.230;12.856;2023-05-29T07:12:50;22.40;42.20
15543;DHT22;7873;52.230;12.856;2023-05-29T07:15:17;22.40;42.00
15543;DHT22;7873;52.230;12.856;2023-05-29T07:17:44;22.40;41.30
15543;DHT22;7873;52.230;12.856;2023-05-29T07:20:11;22.60;41.00
15543;DHT22;7873;52.230;12.856;2023-05-29T07:22:38;22.40;41.00
15543;DHT22;7873;52.230;12.856;2023-05-29T07:25:05;22.40;40.90
15543;DHT22;7873;52.230;12.856;2023-05-29T07:27:33;22.40;40.60
15543;DHT22;7873;52.230;12.856;2023-05-29T07:30:01;22.40;40.00
15543;DHT22;7873;52.230;12.856;2023-05-29T07:32:27;22.50;40.30
15543;DHT22;7873;52.230;12.856;2023-05-29T07:34:54;22.50;40.20
15543;DHT22;7873;52.230;12.856;2023-05-29T07:37:21;22.30;40.60
15543;DHT22;7873;52.230;12.856;2023-05-29T07:39:48;22.30;40.80
15543;DHT22;7873;52.230;12.856;2023-05-29T07:42:14;22.30;40.40
15543;DHT22;7873;52.230;12.856;2023-05-29T07:44:42;22.40;40.20
15543;DHT22;7873;52.230;12.856;2023-05-29T07:47:09;22.50;40.00
15543;DHT22;7873;52.230;12.856;2023-05-29T07:49:36;22.40;40.10
15543;DHT22;7873;52.230;12.856;2023-05-29T07:52:03;22.40;40.20
15543;DHT22;7873;52.230;12.856;2023-05-29T07:54:30;22.40;40.20
15543;DHT22;7873;52.230;12.856;2023-05-29T07:56:58;22.30;39.90
15543;DHT22;7873;52.230;12.856;2023-05-29T07:59:24;22.30;40.20
15543;DHT22;7873;52.230;12.856;2023-05-29T08:01:53;22.20;40.10
15543;DHT22;7873;52.230;12.856;2023-05-29T08:04:23;22.30;40.00
15543;DHT22;7873;52.230;12.856;2023-05-29T08:06:50;22.30;40.30
15543;DHT22;7873;52.230;12.856;2023-05-29T08:09:16;22.30;40.50
15543;DHT22;7873;52.230;12.856;2023-05-29T08:11:44;22.40;40.30
15543;DHT22;7873;52.230;12.856;2023-05-29T08:14:11;22.20;40.50
15543;DHT22;7873;52.230;12.856;2023-05-29T08:16:38;22.20;40.80
15543;DHT22;7873;52.230;12.856;2023-05-29T08:19:06;22.30;40.70
15543;DHT22;7873;52.230;12.856;2023-05-29T08:21:33;22.20;40.80
15543;DHT22;7873;52.230;12.856;2023-05-29T08:23:59;22.20;41.10
15543;DHT22;7873;52.230;12.856;2023-05-29T08:26:30;22.20;41.10
15543;DHT22;7873;52.230;12.856;2023-05-29T08:28:56;22.20;41.30
15543;DHT22;7873;52.230;12.856;2023-05-29T08:31:23;22.20;40.80
15543;DHT22;7873;52.230;12.856;2023-05-29T08:33:50;22.20;40.20
15543;DHT22;7873;52.230;12.856;2023-05-29T08:36:18;22.10;40.40
15543;DHT22;7873;52.230;12.856;2023-05-29T08:38:46;22.10;40.10
15543;DHT22;7873;52.230;12.856;2023-05-29T08:41:14;22.10;40.00
15543;DHT22;7873;52.230;12.856;2023-05-29T08:43:47;22.10;40.30
15543;DHT22;7873;52.230;12.856;2023-05-29T08:46:15;22.10;40.70
15543;DHT22;7873;52.230;12.856;2023-05-29T08:48:45;22.10;40.70
15543;DHT22;7873;52.230;12.856;2023-05-29T08:51:16;22.10;41.40
15543;DHT22;7873;52.230;12.856;2023-05-29T08:53:47;22.00;41.00
15543;DHT22;7873;52.230;12.856;2023-05-29T08:56:13;22.00;41.10
15543;DHT22;7873;52.230;12.856;2023-05-29T08:58:41;22.00;41.30
15543;DHT22;7873;52.230;12.856;2023-05-29T09:01:09;22.10;41.90
15543;DHT22;7873;52.230;12.856;2023-05-29T09:03:35;22.00;41.60
15543;DHT22;7873;52.230;12.856;2023-05-29T09:06:03;22.00;41.50
15543;DHT22;7873;52.230;12.856;2023-05-29T09:08:34;22.10;41.50
15543;DHT22;7873;52.230;12.856;2023-05-29T09:11:00;22.10;41.30
15543;DHT22;7873;52.230;12.856;2023-05-29T09:13:27;22.10;41.00
15543;DHT22;7873;52.230;12.856;2023-05-29T09:15:56;22.10;40.70
15543;DHT22;7873;52.230;12.856;2023-05-29T09:18:27;22.20;40.80
15543;DHT22;7873;52.230;12.856;2023-05-29T09:20:55;22.10;40.70
15543;DHT22;7873;52.230;12.856;2023-05-29T09:23:21;22.00;41.10
15543;DHT22;7873;52.230;12.856;2023-05-29T09:25:52;22.20;41.40
15543;DHT22;7873;52.230;12.856;2023-05-29T09:28:20;22.00;41.90
15543;DHT22;7873;52.230;12.856;2023-05-29T09:30:48;22.10;42.30
15543;DHT22;7873;52.230;12.856;2023-05-29T09:33:16;22.10;42.10
15543;DHT22;7873;52.230;12.856;2023-05-29T09:35:43;22.20;42.20
15543;DHT22;7873;52.230;12.856;2023-05-29T09:38:13;22.20;42.50
15543;DHT22;7873;52.230;12.856;2023-05-29T09:40:43;22.30;42.40
15543;DHT22;7873;52.230;12.856;2023-05-29T09:43:15;22.40;42.10
15543;DHT22;7873;52.230;12.856;2023-05-29T09:45:44;22.50;42.30
15543;DHT22;7873;52.230;12.856;2023-05-29T09:48:13;22.60;42.00
15543;DHT22;7873;52.230;12.856;2023-05-29T09:50:40;22.70;42.80
15543;DHT22;7873;52.230;12.856;2023-05-29T09:53:17;22.60;42.90
15543;DHT22;7873;52.230;12.856;2023-05-29T09:55:47;22.70;43.30
15543;DHT22;7873;52.230;12.856;2023-05-29T09:58:17;22.70;43.60
15543;DHT22;7873;52.230;12.856;2023-05-29T10:00:44;22.70;43.90
15543;DHT22;7873;52.230;12.856;2023-05-29T10:03:12;22.60;44.00
15543;DHT22;7873;52.230;12.856;2023-05-29T10:05:40;22.70;43.90
15543;DHT22;7873;52.230;12.856;2023-05-29T10:08:08;22.80;44.30
15543;DHT22;7873;52.230;12.856;2023-05-29T10:10:38;22.80;44.60
15543;DHT22;7873;52.230;12.856;2023-05-29T10:13:08;22.70;45.00
15543;DHT22;7873;52.230;12.856;2023-05-29T10:15:40;22.70;45.60
15543;DHT22;7873;52.230;12.856;2023-05-29T10:18:11;22.80;46.50
15543;DHT22;7873;52.230;12.856;2023-05-29T10:20:45;22.90;47.20
15543;DHT22;7873;52.230;12.856;2023-05-29T10:23:16;23.00;47.20
15543;DHT22;7873;52.230;12.856;2023-05-29T10:25:51;23.00;47.60
15543;DHT22;7873;52.230;12.856;2023-05-29T10:28:19;22.90;47.80
15543;DHT22;7873;52.230;12.856;2023-05-29T10:30:49;23.10;47.20
15543;DHT22;7873;52.230;12.856;2023-05-29T10:33:22;23.10;46.80
15543;DHT22;7873;52.230;12.856;2023-05-29T10:36:01;23.00;47.50
15543;DHT22;7873;52.230;12.856;2023-05-29T10:38:33;23.00;48.00
15543;DHT22;7873;52.230;12.856;2023-05-29T10:43:58;23.30;47.20
15543;DHT22;7873;52.230;12.856;2023-05-29T10:49:34;23.30;47.60
15543;DHT22;7873;52.230;12.856;2023-05-29T10:52:03;23.40;47.80
15543;DHT22;7873;52.230;12.856;2023-05-29T10:54:39;23.40;47.90
15543;DHT22;7873;52.230;12.856;2023-05-29T10:57:07;23.40;48.00
15543;DHT22;7873;52.230;12.856;2023-05-29T10:59:35;23.40;48.30
15543;DHT22;7873;52.230;12.856;2023-05-29T11:02:04;23.40;48.30
15543;DHT22;7873;52.230;12.856;2023-05-29T11:04:32;23.40;48.00
15543;DHT22;7873;52.230;12.856;2023-05-29T11:06:59;23.40;48.00
15543;DHT22;7873;52.230;12.856;2023-05-29T11:09:30;23.20;47.60
15543;DHT22;7873;52.230;12.856;2023-05-29T11:12:12;23.20;47.80
15543;DHT22;7873;52.230;12.856;2023-05-29T11:14:53;23.20;47.40
15543;DHT22;7873;52.230;12.856;2023-05-29T11:17:43;23.30;46.60
15543;DHT22;7873;52.230;12.856;2023-05-29T11:23:03;23.30;45.00
15543;DHT22;7873;52.230;12.856;2023-05-29T11:25:34;23.30;44.90
15543;DHT22;7873;52.230;12.856;2023-05-29T11:28:02;23.40;43.90
15543;DHT22;7873;52.230;12.856;2023-05-29T11:30:40;23.40;44.10
15543;DHT22;7873;52.230;12.856;2023-05-29T11:33:10;23.30;43.90
15543;DHT22;7873;52.230;12.856;2023-05-29T11:36:00;23.40;43.70
15543;DHT22;7873;52.230;12.856;2023-05-29T11:38:27;23.50;43.30
15543;DHT22;7873;52.230;12.856;2023-05-29T11:40:55;23.60;42.80
15543;DHT22;7873;52.230;12.856;2023-05-29T11:43:23;23.60;42.30
15543;DHT22;7873;52.230;12.856;2023-05-29T11:45:50;23.40;42.90
15543;DHT22;7873;52.230;12.856;2023-05-29T11:48:19;23.50;42.60
15543;DHT22;7873;52.230;12.856;2023-05-29T11:50:47;23.50;42.30
15543;DHT22;7873;52.230;12.856;2023-05-29T11:53:13;23.60;42.40
15543;DHT22;7873;52.230;12.856;2023-05-29T11:55:40;23.60;42.20
15543;DHT22;7873;52.230;12.856;2023-05-29T11:58:07;23.70;41.90
15543;DHT22;7873;52.230;12.856;2023-05-29T12:00:34;23.70;42.00
15543;DHT22;7873;52.230;12.856;2023-05-29T12:03:03;23.70;41.90
15543;DHT22;7873;52.230;12.856;2023-05-29T12:05:32;23.70;42.10
15543;DHT22;7873;52.230;12.856;2023-05-29T12:07:59;23.60;42.30
15543;DHT22;7873;52.230;12.856;2023-05-29T12:10:27;23.40;42.60
15543;DHT22;7873;52.230;12.856;2023-05-29T12:12:54;23.40;42.10
15543;DHT22;7873;52.230;12.856;2023-05-29T12:15:22;23.50;41.90
15543;DHT22;7873;52.230;12.856;2023-05-29T12:17:50;23.50;41.90
15543;DHT22;7873;52.230;12.856;2023-05-29T12:20:17;23.50;41.50
15543;DHT22;7873;52.230;12.856;2023-05-29T12:22:46;23.50;41.50
15543;DHT22;7873;52.230;12.856;2023-05-29T12:25:14;23.50;40.70
15543;DHT22;7873;52.230;12.856;2023-05-29T12:27:42;23.60;41.60
15543;DHT22;7873;52.230;12.856;2023-05-29T12:30:12;23.50;40.90
15543;DHT22;7873;52.230;12.856;2023-05-29T12:32:41;23.60;41.60
15543;DHT22;7873;52.230;12.856;2023-05-29T12:35:12;23.70;41.40
15543;DHT22;7873;52.230;12.856;2023-05-29T12:37:44;23.70;41.10
15543;DHT22;7873;52.230;12.856;2023-05-29T12:40:17;23.60;41.20
15543;DHT22;7873;52.230;12.856;2023-05-29T12:42:45;23.60;41.70
15543;DHT22;7873;52.230;12.856;2023-05-29T12:45:12;23.40;42.00
15543;DHT22;7873;52.230;12.856;2023-05-29T12:47:48;23.40;41.60
15543;DHT22;7873;52.230;12.856;2023-05-29T12:50:20;23.50;41.60
15543;DHT22;7873;52.230;12.856;2023-05-29T12:52:58;23.60;41.30
15543;DHT22;7873;52.230;12.856;2023-05-29T12:55:28;23.70;41.10
15543;DHT22;7873;52.230;12.856;2023-05-29T12:57:55;23.70;41.20
15543;DHT22;7873;52.230;12.856;2023-05-29T13:00:22;23.80;41.10
15543;DHT22;7873;52.230;12.856;2023-05-29T13:02:50;23.80;41.10
15543;DHT22;7873;52.230;12.856;2023-05-29T13:05:17;23.70;41.00
15543;DHT22;7873;52.230;12.856;2023-05-29T13:07:47;23.70;40.70
15543;DHT22;7873;52.230;12.856;2023-05-29T13:10:15;23.70;40.70
15543;DHT22;7873;52.230;12.856;2023-05-29T13:12:43;23.80;40.70
15543;DHT22;7873;52.230;12.856;2023-05-29T13:15:11;23.80;40.60
15543;DHT22;7873;52.230;12.856;2023-05-29T13:17:39;23.70;40.60
15543;DHT22;7873;52.230;12.856;2023-05-29T13:20:07;23.60;41.10
15543;DHT22;7873;52.230;12.856;2023-05-29T13:22:36;23.50;41.70
15543;DHT22;7873;52.230;12.856;2023-05-29T13:25:03;23.50;42.10
15543;DHT22;7873;52.230;12.856;2023-05-29T13:27:31;23.30;42.20
15543;DHT22;7873;52.230;12.856;2023-05-29T13:30:00;23.30;42.30
15543;DHT22;7873;52.230;12.856;2023-05-29T13:32:27;23.30;42.80
15543;DHT22;7873;52.230;12.856;2023-05-29T13:34:53;23.20;43.10
15543;DHT22;7873;52.230;12.856;2023-05-29T13:37:20;23.10;43.00
15543;DHT22;7873;52.230;12.856;2023-05-29T13:39:47;23.20;43.20
15543;DHT22;7873;52.230;12.856;2023-05-29T13:42:14;23.20;42.40
15543;DHT22;7873;52.230;12.856;2023-05-29T13:44:41;23.30;42.60
15543;DHT22;7873;52.230;12.856;2023-05-29T13:47:09;23.30;42.80
15543;DHT22;7873;52.230;12.856;2023-05-29T13:49:35;23.30;41.70
15543;DHT22;7873;52.230;12.856;2023-05-29T13:52:02;23.20;41.60
15543;DHT22;7873;52.230;12.856;2023-05-29T13:54:29;23.20;42.10
15543;DHT22;7873;52.230;12.856;2023-05-29T13:57:00;23.30;42.20
15543;DHT22;7873;52.230;12.856;2023-05-29T13:59:27;23.30;42.20
15543;DHT22;7873;52.230;12.856;2023-05-29T14:01:54;23.30;42.30
15543;DHT22;7873;52.230;12.856;2023-05-29T14:04:22;23.30;42.10
15543;DHT22;7873;52.230;12.856;2023-05-29T14:06:48;23.30;42.10
15543;DHT22;7873;52.230;12.856;2023-05-29T14:09:15;23.40;41.80
15543;DHT22;7873;52.230;12.856;2023-05-29T14:11:44;23.40;41.60
15543;DHT22;7873;52.230;12.856;2023-05-29T14:14:11;23.40;41.60
15543;DHT22;7873;52.230;12.856;2023-05-29T14:16:38;23.40;41.80
15543;DHT22;7873;52.230;12.856;2023-05-29T14:19:04;23.40;41.80
15543;DHT22;7873;52.230;12.856;2023-05-29T14:21:32;23.40;41.90
15543;DHT22;7873;52.230;12.856;2023-05-29T14:23:59;23.40;42.00
15543;DHT22;7873;52.230;12.856;2023-05-29T14:26:26;23.40;42.00
15543;DHT22;7873;52.230;12.856;2023-05-29T14:28:52;23.50;41.90
15543;DHT22;7873;52.230;12.856;2023-05-29T14:31:19;23.60;41.60
15543;DHT22;7873;52.230;12.856;2023-05-29T14:33:46;23.60;41.70
15543;DHT22;7873;52.230;12.856;2023-05-29T14:36:12;23.40;41.00
15543;DHT22;7873;52.230;12.856;2023-05-29T14:38:40;23.50;41.30
15543;DHT22;7873;52.230;12.856;2023-05-29T14:41:08;23.50;41.20
15543;DHT22;7873;52.230;12.856;2023-05-29T14:43:37;23.60;41.00
15543;DHT22;7873;52.230;12.856;2023-05-29T14:46:05;23.60;40.80
15543;DHT22;7873;52.230;12.856;2023-05-29T14:48:31;23.70;41.00
15543;DHT22;7873;52.230;12.856;2023-05-29T14:50:58;23.70;40.70
15543;DHT22;7873;52.230;12.856;2023-05-29T14:53:25;23.80;40.70
15543;DHT22;7873;52.230;12.856;2023-05-29T14:55:53;23.90;40.40
15543;DHT22;7873;52.230;12.856;2023-05-29T14:58:21;23.80;40.30
15543;DHT22;7873;52.230;12.856;2023-05-29T15:00:48;23.90;40.00
15543;DHT22;7873;52.230;12.856;2023-05-29T15:03:14;24.00;39.80
15543;DHT22;7873;52.230;12.856;2023-05-29T15:05:41;24.00;39.30
15543;DHT22;7873;52.230;12.856;2023-05-29T15:08:08;23.90;39.80
15543;DHT22;7873;52.230;12.856;2023-05-29T15:10:35;24.00;39.90
15543;DHT22;7873;52.230;12.856;2023-05-29T15:13:03;24.00;40.10
15543;DHT22;7873;52.230;12.856;2023-05-29T15:15:32;23.90;40.20
15543;DHT22;7873;52.230;12.856;2023-05-29T15:17:58;23.90;40.70
15543;DHT22;7873;52.230;12.856;2023-05-29T15:20:26;23.90;40.90
15543;DHT22;7873;52.230;12.856;2023-05-29T15:22:53;23.90;40.30
15543;DHT22;7873;52.230;12.856;2023-05-29T15:25:20;23.90;40.40
15543;DHT22;7873;52.230;12.856;2023-05-29T15:27:48;23.90;40.50
15543;DHT22;7873;52.230;12.856;2023-05-29T15:30:17;23.90;40.40
15543;DHT22;7873;52.230;12.856;2023-05-29T15:32:45;24.10;40.30
15543;DHT22;7873;52.230;12.856;2023-05-29T15:35:13;24.10;40.20
15543;DHT22;7873;52.230;12.856;2023-05-29T15:37:41;24.30;40.00
15543;DHT22;7873;52.230;12.856;2023-05-29T15:40:09;24.30;40.00
15543;DHT22;7873;52.230;12.856;2023-05-29T15:42:36;24.30;39.90
15543;DHT22;7873;52.230;12.856;2023-05-29T15:45:03;24.30;39.70